sensor_id;sensor_type;location;lat;lon;timestamp;P1;durP1;ratioP1;P2;durP2;ratioP2
68315;SDS011;55508;54.368;18.406;2023-04-19T00:02:12;9.35;;;3.08;;
68315;SDS011;55508;54.368;18.406;2023-04-19T00:04:39;5.15;;;3.17;;
68315;SDS011;55508;54.368;18.406;2023-04-19T00:07:06;10.77;;;2.92;;
68315;SDS011;55508;54.368;18.406;2023-04-19T00:09:33;6.47;;;3.13;;
68315;SDS011;55508;54.368;18.406;2023-04-19T00:12:01;7.28;;;3.10;;
68315;SDS011;55508;54.368;18.406;2023-04-19T00:14:28;5.82;;;2.78;;
68315;SDS011;55508;54.368;18.406;2023-04-19T00:16:55;4.90;;;2.50;;
68315;SDS011;55508;54.368;18.406;2023-04-19T00:19:22;4.82;;;3.22;;
68315;SDS011;55508;54.368;18.406;2023-04-19T00:21:49;9.00;;;3.20;;
68315;SDS011;55508;54.368;18.406;2023-04-19T00:24:16;7.45;;;3.30;;
68315;SDS011;55508;54.368;18.406;2023-04-19T00:26:43;7.00;;;3.35;;
68315;SDS011;55508;54.368;18.406;2023-04-19T00:29:10;6.35;;;2.63;;
68315;SDS011;55508;54.368;18.406;2023-04-19T00:31:37;7.45;;;2.70;;
68315;SDS011;55508;54.368;18.406;2023-04-19T00:34:05;9.68;;;3.00;;
68315;SDS011;55508;54.368;18.406;2023-04-19T00:36:32;7.97;;;3.00;;
68315;SDS011;55508;54.368;18.406;2023-04-19T00:38:59;5.30;;;2.60;;
68315;SDS011;55508;54.368;18.406;2023-04-19T00:41:26;9.02;;;2.72;;
68315;SDS011;55508;54.368;18.406;2023-04-19T00:43:53;8.73;;;2.90;;
68315;SDS011;55508;54.368;18.406;2023-04-19T00:46:20;7.95;;;2.70;;
68315;SDS011;55508;54.368;18.406;2023-04-19T00:48:47;9.40;;;3.03;;
68315;SDS011;55508;54.368;18.406;2023-04-19T00:51:15;6.05;;;3.42;;
68315;SDS011;55508;54.368;18.406;2023-04-19T00:53:42;3.67;;;2.60;;
68315;SDS011;55508;54.368;18.406;2023-04-19T00:56:09;6.60;;;3.13;;
68315;SDS011;55508;54.368;18.406;2023-04-19T00:58:37;7.28;;;3.10;;
68315;SDS011;55508;54.368;18.406;2023-04-19T01:01:04;4.78;;;3.13;;
68315;SDS011;55508;54.368;18.406;2023-04-19T01:03:32;4.30;;;2.92;;
68315;SDS011;55508;54.368;18.406;2023-04-19T01:06:00;5.38;;;3.00;;
68315;SDS011;55508;54.368;18.406;2023-04-19T01:08:27;5.90;;;3.78;;
68315;SDS011;55508;54.368;18.406;2023-04-19T01:10:54;9.02;;;3.70;;
68315;SDS011;55508;54.368;18.406;2023-04-19T01:13:21;10.07;;;3.10;;
68315;SDS011;55508;54.368;18.406;2023-04-19T01:15:48;6.72;;;3.58;;
68315;SDS011;55508;54.368;18.406;2023-04-19T01:18:19;6.05;;;3.92;;
68315;SDS011;55508;54.368;18.406;2023-04-19T01:20:47;7.57;;;3.20;;
68315;SDS011;55508;54.368;18.406;2023-04-19T01:23:13;8.02;;;3.00;;
68315;SDS011;55508;54.368;18.406;2023-04-19T01:25:40;8.20;;;3.53;;
68315;SDS011;55508;54.368;18.406;2023-04-19T01:28:07;9.20;;;3.28;;
68315;SDS011;55508;54.368;18.406;2023-04-19T01:30:34;6.22;;;3.22;;
68315;SDS011;55508;54.368;18.406;2023-04-19T01:33:01;6.70;;;3.92;;
68315;SDS011;55508;54.368;18.406;2023-04-19T01:35:28;6.70;;;3.20;;
68315;SDS011;55508;54.368;18.406;2023-04-19T01:37:55;8.43;;;3.63;;
68315;SDS011;55508;54.368;18.406;2023-04-19T01:40:22;5.45;;;3.22;;
68315;SDS011;55508;54.368;18.406;2023-04-19T01:42:52;8.57;;;3.42;;
68315;SDS011;55508;54.368;18.406;2023-04-19T01:45:19;6.95;;;3.00;;
68315;SDS011;55508;54.368;18.406;2023-04-19T01:47:50;9.57;;;3.50;;
68315;SDS011;55508;54.368;18.406;2023-04-19T01:50:17;10.00;;;3.50;;
68315;SDS011;55508;54.368;18.406;2023-04-19T01:52:44;6.63;;;3.45;;
68315;SDS011;55508;54.368;18.406;2023-04-19T01:55:11;7.43;;;2.83;;
68315;SDS011;55508;54.368;18.406;2023-04-19T01:57:38;11.48;;;4.05;;
68315;SDS011;55508;54.368;18.406;2023-04-19T02:00:06;5.50;;;3.28;;
68315;SDS011;55508;54.368;18.406;2023-04-19T02:02:39;4.70;;;3.15;;
68315;SDS011;55508;54.368;18.406;2023-04-19T02:05:07;10.85;;;4.00;;
68315;SDS011;55508;54.368;18.406;2023-04-19T02:07:35;9.32;;;4.38;;
68315;SDS011;55508;54.368;18.406;2023-04-19T02:10:02;9.35;;;3.53;;
68315;SDS011;55508;54.368;18.406;2023-04-19T02:12:29;8.07;;;3.92;;
68315;SDS011;55508;54.368;18.406;2023-04-19T02:14:56;6.75;;;4.05;;
68315;SDS011;55508;54.368;18.406;2023-04-19T02:17:33;8.80;;;3.60;;
68315;SDS011;55508;54.368;18.406;2023-04-19T02:20:00;8.25;;;4.22;;
68315;SDS011;55508;54.368;18.406;2023-04-19T02:22:27;7.03;;;4.22;;
68315;SDS011;55508;54.368;18.406;2023-04-19T02:24:54;7.03;;;4.10;;
68315;SDS011;55508;54.368;18.406;2023-04-19T02:27:28;5.90;;;3.72;;
68315;SDS011;55508;54.368;18.406;2023-04-19T02:29:54;8.63;;;4.05;;
68315;SDS011;55508;54.368;18.406;2023-04-19T02:32:22;12.02;;;4.28;;
68315;SDS011;55508;54.368;18.406;2023-04-19T02:34:49;6.70;;;3.55;;
68315;SDS011;55508;54.368;18.406;2023-04-19T02:37:17;11.25;;;4.32;;
68315;SDS011;55508;54.368;18.406;2023-04-19T02:39:44;7.93;;;4.25;;
68315;SDS011;55508;54.368;18.406;2023-04-19T02:42:11;8.63;;;4.10;;
68315;SDS011;55508;54.368;18.406;2023-04-19T02:44:38;9.18;;;4.10;;
68315;SDS011;55508;54.368;18.406;2023-04-19T02:47:05;9.55;;;3.80;;
68315;SDS011;55508;54.368;18.406;2023-04-19T02:49:33;9.07;;;4.65;;
68315;SDS011;55508;54.368;18.406;2023-04-19T02:52:03;11.00;;;4.25;;
68315;SDS011;55508;54.368;18.406;2023-04-19T02:54:32;10.50;;;4.28;;
68315;SDS011;55508;54.368;18.406;2023-04-19T02:56:59;11.82;;;4.20;;
68315;SDS011;55508;54.368;18.406;2023-04-19T02:59:26;7.88;;;4.25;;
68315;SDS011;55508;54.368;18.406;2023-04-19T03:01:56;8.40;;;4.65;;
68315;SDS011;55508;54.368;18.406;2023-04-19T03:04:24;7.80;;;4.72;;
68315;SDS011;55508;54.368;18.406;2023-04-19T03:06:51;8.02;;;4.45;;
68315;SDS011;55508;54.368;18.406;2023-04-19T03:09:18;4.53;;;3.90;;
68315;SDS011;55508;54.368;18.406;2023-04-19T03:11:45;6.20;;;4.82;;
68315;SDS011;55508;54.368;18.406;2023-04-19T03:14:12;7.07;;;4.25;;
68315;SDS011;55508;54.368;18.406;2023-04-19T03:16:39;6.63;;;4.65;;
68315;SDS011;55508;54.368;18.406;2023-04-19T03:19:07;10.70;;;4.80;;
68315;SDS011;55508;54.368;18.406;2023-04-19T03:21:40;11.43;;;4.82;;
68315;SDS011;55508;54.368;18.406;2023-04-19T03:24:07;10.30;;;5.10;;
68315;SDS011;55508;54.368;18.406;2023-04-19T03:26:37;7.63;;;4.18;;
68315;SDS011;55508;54.368;18.406;2023-04-19T03:29:05;11.55;;;4.82;;
68315;SDS011;55508;54.368;18.406;2023-04-19T03:31:39;6.95;;;4.22;;
68315;SDS011;55508;54.368;18.406;2023-04-19T03:34:09;8.40;;;4.28;;
68315;SDS011;55508;54.368;18.406;2023-04-19T03:36:40;9.73;;;4.97;;
68315;SDS011;55508;54.368;18.406;2023-04-19T03:39:07;9.63;;;4.82;;
68315;SDS011;55508;54.368;18.406;2023-04-19T03:41:36;13.60;;;5.28;;
68315;SDS011;55508;54.368;18.406;2023-04-19T03:44:25;8.35;;;4.32;;
68315;SDS011;55508;54.368;18.406;2023-04-19T03:46:53;7.75;;;4.55;;
68315;SDS011;55508;54.368;18.406;2023-04-19T03:49:24;10.52;;;5.18;;
68315;SDS011;55508;54.368;18.406;2023-04-19T03:52:00;9.02;;;4.55;;
68315;SDS011;55508;54.368;18.406;2023-04-19T03:54:27;11.63;;;4.43;;
68315;SDS011;55508;54.368;18.406;2023-04-19T03:56:55;7.25;;;4.15;;
68315;SDS011;55508;54.368;18.406;2023-04-19T03:59:23;10.98;;;4.45;;
68315;SDS011;55508;54.368;18.406;2023-04-19T04:01:51;9.80;;;4.35;;
68315;SDS011;55508;54.368;18.406;2023-04-19T04:04:18;8.95;;;3.90;;
68315;SDS011;55508;54.368;18.406;2023-04-19T04:06:46;12.13;;;5.10;;
68315;SDS011;55508;54.368;18.406;2023-04-19T04:09:15;8.80;;;4.82;;
68315;SDS011;55508;54.368;18.406;2023-04-19T04:11:42;8.90;;;3.80;;
68315;SDS011;55508;54.368;18.406;2023-04-19T04:14:10;6.45;;;3.85;;
68315;SDS011;55508;54.368;18.406;2023-04-19T04:16:37;7.70;;;4.15;;
68315;SDS011;55508;54.368;18.406;2023-04-19T04:19:05;9.02;;;4.20;;
68315;SDS011;55508;54.368;18.406;2023-04-19T04:21:35;7.28;;;3.97;;
68315;SDS011;55508;54.368;18.406;2023-04-19T04:24:04;9.20;;;3.67;;
68315;SDS011;55508;54.368;18.406;2023-04-19T04:26:40;7.75;;;3.60;;
68315;SDS011;55508;54.368;18.406;2023-04-19T04:29:16;5.28;;;4.32;;
68315;SDS011;55508;54.368;18.406;2023-04-19T04:31:44;7.75;;;4.20;;
68315;SDS011;55508;54.368;18.406;2023-04-19T04:34:13;6.63;;;3.72;;
68315;SDS011;55508;54.368;18.406;2023-04-19T04:36:49;7.30;;;4.10;;
68315;SDS011;55508;54.368;18.406;2023-04-19T04:39:17;6.63;;;3.80;;
68315;SDS011;55508;54.368;18.406;2023-04-19T04:41:44;8.43;;;4.18;;
68315;SDS011;55508;54.368;18.406;2023-04-19T04:44:11;8.85;;;4.20;;
68315;SDS011;55508;54.368;18.406;2023-04-19T04:46:40;9.73;;;4.60;;
68315;SDS011;55508;54.368;18.406;2023-04-19T04:49:11;6.80;;;4.20;;
68315;SDS011;55508;54.368;18.406;2023-04-19T04:51:40;9.88;;;4.32;;
68315;SDS011;55508;54.368;18.406;2023-04-19T04:54:08;7.55;;;4.28;;
68315;SDS011;55508;54.368;18.406;2023-04-19T04:56:35;8.35;;;4.15;;
68315;SDS011;55508;54.368;18.406;2023-04-19T04:59:02;6.97;;;3.88;;
68315;SDS011;55508;54.368;18.406;2023-04-19T05:01:34;11.48;;;4.40;;
68315;SDS011;55508;54.368;18.406;2023-04-19T05:04:01;10.70;;;4.63;;
68315;SDS011;55508;54.368;18.406;2023-04-19T05:06:28;10.20;;;4.32;;
68315;SDS011;55508;54.368;18.406;2023-04-19T05:08:55;14.23;;;4.18;;
68315;SDS011;55508;54.368;18.406;2023-04-19T05:11:31;6.03;;;3.72;;
68315;SDS011;55508;54.368;18.406;2023-04-19T05:13:58;9.98;;;4.65;;
68315;SDS011;55508;54.368;18.406;2023-04-19T05:16:25;6.22;;;3.80;;
68315;SDS011;55508;54.368;18.406;2023-04-19T05:18:53;4.72;;;3.78;;
68315;SDS011;55508;54.368;18.406;2023-04-19T05:21:21;6.20;;;4.35;;
68315;SDS011;55508;54.368;18.406;2023-04-19T05:23:48;5.75;;;3.33;;
68315;SDS011;55508;54.368;18.406;2023-04-19T05:26:16;6.10;;;3.55;;
68315;SDS011;55508;54.368;18.406;2023-04-19T05:28:46;6.53;;;3.15;;
68315;SDS011;55508;54.368;18.406;2023-04-19T05:31:26;4.20;;;3.38;;
68315;SDS011;55508;54.368;18.406;2023-04-19T05:34:05;10.05;;;4.22;;
68315;SDS011;55508;54.368;18.406;2023-04-19T05:36:32;11.48;;;3.63;;
68315;SDS011;55508;54.368;18.406;2023-04-19T05:38:59;7.30;;;3.60;;
68315;SDS011;55508;54.368;18.406;2023-04-19T05:41:26;4.63;;;3.03;;
68315;SDS011;55508;54.368;18.406;2023-04-19T05:43:53;4.38;;;3.17;;
68315;SDS011;55508;54.368;18.406;2023-04-19T05:46:20;8.95;;;3.65;;
68315;SDS011;55508;54.368;18.406;2023-04-19T05:48:47;9.32;;;3.92;;
68315;SDS011;55508;54.368;18.406;2023-04-19T05:51:34;9.30;;;3.65;;
68315;SDS011;55508;54.368;18.406;2023-04-19T05:54:09;5.72;;;3.42;;
68315;SDS011;55508;54.368;18.406;2023-04-19T05:56:39;10.05;;;3.60;;
68315;SDS011;55508;54.368;18.406;2023-04-19T05:59:06;4.63;;;2.63;;
68315;SDS011;55508;54.368;18.406;2023-04-19T06:01:33;8.23;;;3.47;;
68315;SDS011;55508;54.368;18.406;2023-04-19T06:04:01;7.68;;;3.70;;
68315;SDS011;55508;54.368;18.406;2023-04-19T06:06:28;5.53;;;3.35;;
68315;SDS011;55508;54.368;18.406;2023-04-19T06:08:55;5.05;;;3.63;;
68315;SDS011;55508;54.368;18.406;2023-04-19T06:11:22;5.63;;;2.95;;
68315;SDS011;55508;54.368;18.406;2023-04-19T06:13:57;3.45;;;3.15;;
68315;SDS011;55508;54.368;18.406;2023-04-19T06:16:24;9.95;;;3.22;;
68315;SDS011;55508;54.368;18.406;2023-04-19T06:18:51;9.70;;;3.20;;
68315;SDS011;55508;54.368;18.406;2023-04-19T06:21:19;6.22;;;3.03;;
68315;SDS011;55508;54.368;18.406;2023-04-19T06:23:45;5.50;;;3.95;;
68315;SDS011;55508;54.368;18.406;2023-04-19T06:26:12;4.45;;;3.35;;
68315;SDS011;55508;54.368;18.406;2023-04-19T06:28:39;6.60;;;3.08;;
68315;SDS011;55508;54.368;18.406;2023-04-19T06:31:06;5.50;;;3.47;;
68315;SDS011;55508;54.368;18.406;2023-04-19T06:33:33;12.55;;;3.42;;
68315;SDS011;55508;54.368;18.406;2023-04-19T06:36:00;6.88;;;3.17;;
68315;SDS011;55508;54.368;18.406;2023-04-19T06:38:28;5.82;;;3.30;;
68315;SDS011;55508;54.368;18.406;2023-04-19T06:40:55;7.20;;;3.17;;
68315;SDS011;55508;54.368;18.406;2023-04-19T06:43:22;4.15;;;3.15;;
68315;SDS011;55508;54.368;18.406;2023-04-19T06:45:56;6.32;;;3.05;;
68315;SDS011;55508;54.368;18.406;2023-04-19T06:48:26;7.13;;;3.20;;
68315;SDS011;55508;54.368;18.406;2023-04-19T06:50:54;7.65;;;3.17;;
68315;SDS011;55508;54.368;18.406;2023-04-19T06:53:21;3.53;;;3.22;;
68315;SDS011;55508;54.368;18.406;2023-04-19T06:55:52;4.65;;;2.78;;
68315;SDS011;55508;54.368;18.406;2023-04-19T06:58:24;7.63;;;3.20;;
68315;SDS011;55508;54.368;18.406;2023-04-19T07:00:51;8.07;;;3.08;;
68315;SDS011;55508;54.368;18.406;2023-04-19T07:03:18;10.15;;;3.28;;
68315;SDS011;55508;54.368;18.406;2023-04-19T07:05:46;5.72;;;3.08;;
68315;SDS011;55508;54.368;18.406;2023-04-19T07:08:14;8.90;;;3.60;;
68315;SDS011;55508;54.368;18.406;2023-04-19T07:10:41;7.63;;;2.40;;
68315;SDS011;55508;54.368;18.406;2023-04-19T07:13:10;4.97;;;2.88;;
68315;SDS011;55508;54.368;18.406;2023-04-19T07:15:37;9.02;;;3.15;;
68315;SDS011;55508;54.368;18.406;2023-04-19T07:18:04;13.35;;;3.13;;
68315;SDS011;55508;54.368;18.406;2023-04-19T07:20:31;5.20;;;3.58;;
68315;SDS011;55508;54.368;18.406;2023-04-19T07:22:59;4.20;;;2.92;;
68315;SDS011;55508;54.368;18.406;2023-04-19T07:25:26;4.32;;;2.85;;
68315;SDS011;55508;54.368;18.406;2023-04-19T07:27:53;5.25;;;3.17;;
68315;SDS011;55508;54.368;18.406;2023-04-19T07:30:21;4.97;;;2.95;;
68315;SDS011;55508;54.368;18.406;2023-04-19T07:32:48;6.28;;;3.38;;
68315;SDS011;55508;54.368;18.406;2023-04-19T07:35:17;6.72;;;3.00;;
68315;SDS011;55508;54.368;18.406;2023-04-19T07:37:45;9.13;;;3.30;;
68315;SDS011;55508;54.368;18.406;2023-04-19T07:40:12;9.82;;;3.25;;
68315;SDS011;55508;54.368;18.406;2023-04-19T07:42:39;4.25;;;2.97;;
68315;SDS011;55508;54.368;18.406;2023-04-19T07:45:06;5.57;;;3.03;;
68315;SDS011;55508;54.368;18.406;2023-04-19T07:47:34;4.93;;;3.53;;
68315;SDS011;55508;54.368;18.406;2023-04-19T07:50:02;8.95;;;3.45;;
68315;SDS011;55508;54.368;18.406;2023-04-19T07:52:31;6.55;;;3.40;;
68315;SDS011;55508;54.368;18.406;2023-04-19T07:54:58;6.03;;;3.00;;
68315;SDS011;55508;54.368;18.406;2023-04-19T07:57:25;7.25;;;3.28;;
68315;SDS011;55508;54.368;18.406;2023-04-19T07:59:52;5.25;;;3.13;;
68315;SDS011;55508;54.368;18.406;2023-04-19T08:02:26;7.67;;;2.70;;
68315;SDS011;55508;54.368;18.406;2023-04-19T08:04:53;4.97;;;2.72;;
68315;SDS011;55508;54.368;18.406;2023-04-19T08:07:21;8.85;;;3.47;;
68315;SDS011;55508;54.368;18.406;2023-04-19T08:09:49;5.40;;;3.33;;
68315;SDS011;55508;54.368;18.406;2023-04-19T08:12:16;4.90;;;3.03;;
68315;SDS011;55508;54.368;18.406;2023-04-19T08:14:58;6.72;;;3.15;;
68315;SDS011;55508;54.368;18.406;2023-04-19T08:17:45;6.40;;;3.10;;
68315;SDS011;55508;54.368;18.406;2023-04-19T08:20:12;11.68;;;3.78;;
68315;SDS011;55508;54.368;18.406;2023-04-19T08:22:40;7.80;;;2.80;;
68315;SDS011;55508;54.368;18.406;2023-04-19T08:25:07;5.85;;;3.13;;
68315;SDS011;55508;54.368;18.406;2023-04-19T08:27:34;6.68;;;3.25;;
68315;SDS011;55508;54.368;18.406;2023-04-19T08:30:02;4.78;;;2.90;;
68315;SDS011;55508;54.368;18.406;2023-04-19T08:32:29;4.72;;;2.75;;
68315;SDS011;55508;54.368;18.406;2023-04-19T08:34:56;2.72;;;2.33;;
68315;SDS011;55508;54.368;18.406;2023-04-19T08:37:23;15.73;;;3.50;;
68315;SDS011;55508;54.368;18.406;2023-04-19T08:39:50;13.38;;;3.83;;
68315;SDS011;55508;54.368;18.406;2023-04-19T08:42:18;3.67;;;3.35;;
68315;SDS011;55508;54.368;18.406;2023-04-19T08:45:02;7.95;;;3.38;;
68315;SDS011;55508;54.368;18.406;2023-04-19T08:47:34;6.10;;;2.35;;
68315;SDS011;55508;54.368;18.406;2023-04-19T08:50:13;7.00;;;2.90;;
68315;SDS011;55508;54.368;18.406;2023-04-19T08:52:59;4.03;;;3.17;;
68315;SDS011;55508;54.368;18.406;2023-04-19T08:55:46;4.85;;;3.83;;
68315;SDS011;55508;54.368;18.406;2023-04-19T08:58:33;4.93;;;4.00;;
68315;SDS011;55508;54.368;18.406;2023-04-19T09:01:04;3.92;;;3.38;;
68315;SDS011;55508;54.368;18.406;2023-04-19T09:03:31;5.28;;;3.22;;
68315;SDS011;55508;54.368;18.406;2023-04-19T09:06:16;11.02;;;3.88;;
68315;SDS011;55508;54.368;18.406;2023-04-19T09:08:44;4.60;;;2.53;;
68315;SDS011;55508;54.368;18.406;2023-04-19T09:11:11;7.72;;;3.97;;
68315;SDS011;55508;54.368;18.406;2023-04-19T09:13:38;10.73;;;4.18;;
68315;SDS011;55508;54.368;18.406;2023-04-19T09:16:06;4.90;;;3.00;;
68315;SDS011;55508;54.368;18.406;2023-04-19T09:18:52;3.63;;;3.20;;
68315;SDS011;55508;54.368;18.406;2023-04-19T09:21:40;3.97;;;3.22;;
68315;SDS011;55508;54.368;18.406;2023-04-19T09:24:08;5.38;;;3.90;;
68315;SDS011;55508;54.368;18.406;2023-04-19T09:26:35;7.80;;;4.03;;
68315;SDS011;55508;54.368;18.406;2023-04-19T09:29:03;8.20;;;4.00;;
68315;SDS011;55508;54.368;18.406;2023-04-19T09:31:32;3.90;;;3.13;;
68315;SDS011;55508;54.368;18.406;2023-04-19T09:34:17;9.85;;;4.55;;
68315;SDS011;55508;54.368;18.406;2023-04-19T09:36:45;4.93;;;3.80;;
68315;SDS011;55508;54.368;18.406;2023-04-19T09:39:12;8.02;;;4.82;;
68315;SDS011;55508;54.368;18.406;2023-04-19T09:41:50;7.85;;;4.82;;
68315;SDS011;55508;54.368;18.406;2023-04-19T09:44:19;5.95;;;4.07;;
68315;SDS011;55508;54.368;18.406;2023-04-19T09:50:05;9.13;;;5.45;;
68315;SDS011;55508;54.368;18.406;2023-04-19T09:52:49;6.30;;;5.57;;
68315;SDS011;55508;54.368;18.406;2023-04-19T09:55:16;8.55;;;5.82;;
68315;SDS011;55508;54.368;18.406;2023-04-19T09:57:54;10.23;;;5.43;;
68315;SDS011;55508;54.368;18.406;2023-04-19T10:00:21;7.13;;;4.72;;
68315;SDS011;55508;54.368;18.406;2023-04-19T10:02:51;11.57;;;6.32;;
68315;SDS011;55508;54.368;18.406;2023-04-19T10:05:21;11.10;;;6.07;;
68315;SDS011;55508;54.368;18.406;2023-04-19T10:07:50;8.32;;;4.97;;
68315;SDS011;55508;54.368;18.406;2023-04-19T10:10:22;11.45;;;6.75;;
68315;SDS011;55508;54.368;18.406;2023-04-19T10:13:10;7.03;;;6.28;;
68315;SDS011;55508;54.368;18.406;2023-04-19T10:15:46;8.77;;;6.07;;
68315;SDS011;55508;54.368;18.406;2023-04-19T10:18:27;10.13;;;5.22;;
68315;SDS011;55508;54.368;18.406;2023-04-19T10:20:56;10.70;;;6.82;;
68315;SDS011;55508;54.368;18.406;2023-04-19T10:23:26;10.68;;;4.43;;
68315;SDS011;55508;54.368;18.406;2023-04-19T10:25:55;10.15;;;6.00;;
68315;SDS011;55508;54.368;18.406;2023-04-19T10:28:28;6.97;;;6.28;;
68315;SDS011;55508;54.368;18.406;2023-04-19T10:31:00;10.15;;;6.43;;
68315;SDS011;55508;54.368;18.406;2023-04-19T10:33:29;12.20;;;6.15;;
68315;SDS011;55508;54.368;18.406;2023-04-19T10:35:58;8.90;;;5.72;;
68315;SDS011;55508;54.368;18.406;2023-04-19T10:38:35;10.15;;;6.93;;
68315;SDS011;55508;54.368;18.406;2023-04-19T10:41:09;15.10;;;8.15;;
68315;SDS011;55508;54.368;18.406;2023-04-19T10:43:45;12.63;;;7.78;;
68315;SDS011;55508;54.368;18.406;2023-04-19T10:49:02;17.98;;;8.40;;
68315;SDS011;55508;54.368;18.406;2023-04-19T10:51:32;11.13;;;6.88;;
68315;SDS011;55508;54.368;18.406;2023-04-19T10:54:05;8.48;;;6.00;;
68315;SDS011;55508;54.368;18.406;2023-04-19T10:59:28;11.35;;;6.82;;
68315;SDS011;55508;54.368;18.406;2023-04-19T11:02:00;18.65;;;8.85;;
68315;SDS011;55508;54.368;18.406;2023-04-19T11:04:56;12.43;;;6.57;;
68315;SDS011;55508;54.368;18.406;2023-04-19T11:07:23;11.68;;;7.03;;
68315;SDS011;55508;54.368;18.406;2023-04-19T11:09:51;14.57;;;7.50;;
68315;SDS011;55508;54.368;18.406;2023-04-19T11:12:18;11.95;;;7.63;;
68315;SDS011;55508;54.368;18.406;2023-04-19T11:14:47;9.82;;;5.93;;
68315;SDS011;55508;54.368;18.406;2023-04-19T11:17:24;9.85;;;7.13;;
68315;SDS011;55508;54.368;18.406;2023-04-19T11:20:02;11.65;;;5.57;;
68315;SDS011;55508;54.368;18.406;2023-04-19T11:22:35;10.90;;;6.57;;
68315;SDS011;55508;54.368;18.406;2023-04-19T11:25:08;16.05;;;8.55;;
68315;SDS011;55508;54.368;18.406;2023-04-19T11:27:37;17.95;;;8.85;;
68315;SDS011;55508;54.368;18.406;2023-04-19T11:30:12;18.17;;;9.20;;
68315;SDS011;55508;54.368;18.406;2023-04-19T11:32:47;22.90;;;8.77;;
68315;SDS011;55508;54.368;18.406;2023-04-19T11:35:19;17.70;;;9.93;;
68315;SDS011;55508;54.368;18.406;2023-04-19T11:37:47;16.08;;;8.68;;
68315;SDS011;55508;54.368;18.406;2023-04-19T11:40:15;20.55;;;9.23;;
68315;SDS011;55508;54.368;18.406;2023-04-19T11:42:44;16.85;;;9.23;;
68315;SDS011;55508;54.368;18.406;2023-04-19T11:45:12;11.95;;;7.70;;
68315;SDS011;55508;54.368;18.406;2023-04-19T11:47:56;18.05;;;7.82;;
68315;SDS011;55508;54.368;18.406;2023-04-19T11:50:31;11.40;;;7.97;;
68315;SDS011;55508;54.368;18.406;2023-04-19T11:53:10;15.45;;;7.20;;
68315;SDS011;55508;54.368;18.406;2023-04-19T11:55:43;10.25;;;6.85;;
68315;SDS011;55508;54.368;18.406;2023-04-19T11:58:26;15.40;;;6.97;;
68315;SDS011;55508;54.368;18.406;2023-04-19T12:01:03;11.52;;;6.45;;
68315;SDS011;55508;54.368;18.406;2023-04-19T12:03:38;13.70;;;7.18;;
68315;SDS011;55508;54.368;18.406;2023-04-19T12:06:16;12.65;;;6.70;;
68315;SDS011;55508;54.368;18.406;2023-04-19T12:08:45;13.15;;;7.15;;
68315;SDS011;55508;54.368;18.406;2023-04-19T12:11:13;14.32;;;7.80;;
68315;SDS011;55508;54.368;18.406;2023-04-19T12:13:41;12.20;;;7.35;;
68315;SDS011;55508;54.368;18.406;2023-04-19T12:16:10;11.40;;;6.57;;
68315;SDS011;55508;54.368;18.406;2023-04-19T12:18:45;9.98;;;5.32;;
68315;SDS011;55508;54.368;18.406;2023-04-19T12:21:23;15.25;;;6.80;;
68315;SDS011;55508;54.368;18.406;2023-04-19T12:23:55;14.70;;;5.63;;
68315;SDS011;55508;54.368;18.406;2023-04-19T12:26:23;14.02;;;6.47;;
68315;SDS011;55508;54.368;18.406;2023-04-19T12:28:54;8.65;;;6.15;;
68315;SDS011;55508;54.368;18.406;2023-04-19T12:31:21;10.55;;;5.60;;
68315;SDS011;55508;54.368;18.406;2023-04-19T12:33:49;13.60;;;5.63;;
68315;SDS011;55508;54.368;18.406;2023-04-19T12:36:16;11.32;;;6.15;;
68315;SDS011;55508;54.368;18.406;2023-04-19T12:38:43;9.80;;;5.35;;
68315;SDS011;55508;54.368;18.406;2023-04-19T12:41:10;10.65;;;5.78;;
68315;SDS011;55508;54.368;18.406;2023-04-19T12:43:37;10.27;;;5.40;;
68315;SDS011;55508;54.368;18.406;2023-04-19T12:46:04;12.68;;;6.38;;
68315;SDS011;55508;54.368;18.406;2023-04-19T12:48:31;11.57;;;5.40;;
68315;SDS011;55508;54.368;18.406;2023-04-19T12:50:58;11.68;;;5.50;;
68315;SDS011;55508;54.368;18.406;2023-04-19T12:53:25;8.10;;;5.18;;
68315;SDS011;55508;54.368;18.406;2023-04-19T12:55:53;10.23;;;5.60;;
68315;SDS011;55508;54.368;18.406;2023-04-19T12:58:20;8.23;;;6.03;;
68315;SDS011;55508;54.368;18.406;2023-04-19T13:00:47;9.23;;;5.68;;
68315;SDS011;55508;54.368;18.406;2023-04-19T13:03:14;20.20;;;11.05;;
68315;SDS011;55508;54.368;18.406;2023-04-19T13:05:42;18.48;;;7.55;;
68315;SDS011;55508;54.368;18.406;2023-04-19T13:08:09;11.38;;;6.35;;
68315;SDS011;55508;54.368;18.406;2023-04-19T13:10:36;23.23;;;10.82;;
68315;SDS011;55508;54.368;18.406;2023-04-19T13:13:04;9.10;;;5.55;;
68315;SDS011;55508;54.368;18.406;2023-04-19T13:15:31;14.15;;;5.70;;
68315;SDS011;55508;54.368;18.406;2023-04-19T13:17:58;7.20;;;5.00;;
68315;SDS011;55508;54.368;18.406;2023-04-19T13:20:25;9.82;;;4.57;;
68315;SDS011;55508;54.368;18.406;2023-04-19T13:22:52;7.88;;;4.45;;
68315;SDS011;55508;54.368;18.406;2023-04-19T13:25:19;7.35;;;4.32;;
68315;SDS011;55508;54.368;18.406;2023-04-19T13:27:46;7.10;;;4.55;;
68315;SDS011;55508;54.368;18.406;2023-04-19T13:30:13;9.25;;;4.47;;
68315;SDS011;55508;54.368;18.406;2023-04-19T13:32:40;10.52;;;4.93;;
68315;SDS011;55508;54.368;18.406;2023-04-19T13:35:07;8.80;;;4.63;;
68315;SDS011;55508;54.368;18.406;2023-04-19T13:37:35;13.27;;;4.93;;
68315;SDS011;55508;54.368;18.406;2023-04-19T13:40:02;6.60;;;4.38;;
68315;SDS011;55508;54.368;18.406;2023-04-19T13:42:44;13.40;;;6.75;;
68315;SDS011;55508;54.368;18.406;2023-04-19T13:45:11;13.95;;;6.68;;
68315;SDS011;55508;54.368;18.406;2023-04-19T13:47:38;12.70;;;6.88;;
68315;SDS011;55508;54.368;18.406;2023-04-19T13:50:05;15.20;;;7.13;;
68315;SDS011;55508;54.368;18.406;2023-04-19T13:52:32;9.65;;;5.55;;
68315;SDS011;55508;54.368;18.406;2023-04-19T13:55:00;11.27;;;5.45;;
68315;SDS011;55508;54.368;18.406;2023-04-19T13:57:27;14.70;;;6.75;;
68315;SDS011;55508;54.368;18.406;2023-04-19T13:59:54;17.10;;;7.38;;
68315;SDS011;55508;54.368;18.406;2023-04-19T14:02:21;16.15;;;5.93;;
68315;SDS011;55508;54.368;18.406;2023-04-19T14:04:48;20.17;;;8.40;;
68315;SDS011;55508;54.368;18.406;2023-04-19T14:07:15;12.80;;;7.50;;
68315;SDS011;55508;54.368;18.406;2023-04-19T14:09:42;22.45;;;8.43;;
68315;SDS011;55508;54.368;18.406;2023-04-19T14:12:10;14.90;;;7.47;;
68315;SDS011;55508;54.368;18.406;2023-04-19T14:14:37;18.52;;;7.75;;
68315;SDS011;55508;54.368;18.406;2023-04-19T14:17:04;14.23;;;5.80;;
68315;SDS011;55508;54.368;18.406;2023-04-19T14:19:31;13.68;;;6.72;;
68315;SDS011;55508;54.368;18.406;2023-04-19T14:21:58;11.68;;;6.65;;
68315;SDS011;55508;54.368;18.406;2023-04-19T14:24:25;11.27;;;5.63;;
68315;SDS011;55508;54.368;18.406;2023-04-19T14:26:52;14.02;;;6.05;;
68315;SDS011;55508;54.368;18.406;2023-04-19T14:29:35;14.82;;;7.07;;
68315;SDS011;55508;54.368;18.406;2023-04-19T14:32:02;14.27;;;5.72;;
68315;SDS011;55508;54.368;18.406;2023-04-19T14:34:46;9.50;;;5.80;;
68315;SDS011;55508;54.368;18.406;2023-04-19T14:37:13;15.98;;;7.07;;
68315;SDS011;55508;54.368;18.406;2023-04-19T14:39:40;11.95;;;5.57;;
68315;SDS011;55508;54.368;18.406;2023-04-19T14:42:07;9.75;;;5.85;;
68315;SDS011;55508;54.368;18.406;2023-04-19T14:44:34;12.98;;;5.95;;
68315;SDS011;55508;54.368;18.406;2023-04-19T14:47:01;12.13;;;5.70;;
68315;SDS011;55508;54.368;18.406;2023-04-19T14:49:28;9.38;;;5.68;;
68315;SDS011;55508;54.368;18.406;2023-04-19T14:51:55;11.98;;;5.93;;
68315;SDS011;55508;54.368;18.406;2023-04-19T14:54:22;10.27;;;4.63;;